sensor_id;sensor_type;location;lat;lon;timestamp;P1;durP1;ratioP1;P2;durP2;ratioP2
3280;SDS011;1652;51.318;6.202;2023-04-08T00:01:43;48.03;;;21.40;;
3280;SDS011;1652;51.318;6.202;2023-04-08T00:04:10;38.47;;;18.30;;
3280;SDS011;1652;51.318;6.202;2023-04-08T00:06:38;50.90;;;21.30;;
3280;SDS011;1652;51.318;6.202;2023-04-08T00:09:05;40.20;;;20.30;;
3280;SDS011;1652;51.318;6.202;2023-04-08T00:11:32;43.17;;;21.20;;
3280;SDS011;1652;51.318;6.202;2023-04-08T00:13:59;41.77;;;21.87;;
3280;SDS011;1652;51.318;6.202;2023-04-08T00:16:26;49.73;;;23.10;;
3280;SDS011;1652;51.318;6.202;2023-04-08T00:18:53;47.10;;;21.47;;
3280;SDS011;1652;51.318;6.202;2023-04-08T00:21:20;44.93;;;21.87;;
3280;SDS011;1652;51.318;6.202;2023-04-08T00:23:47;50.90;;;20.70;;
3280;SDS011;1652;51.318;6.202;2023-04-08T00:26:14;54.33;;;23.07;;
3280;SDS011;1652;51.318;6.202;2023-04-08T00:28:41;45.70;;;22.10;;
3280;SDS011;1652;51.318;6.202;2023-04-08T00:31:08;42.40;;;23.47;;
3280;SDS011;1652;51.318;6.202;2023-04-08T00:33:35;45.47;;;22.80;;
3280;SDS011;1652;51.318;6.202;2023-04-08T00:36:02;41.73;;;22.67;;
3280;SDS011;1652;51.318;6.202;2023-04-08T00:38:29;49.27;;;24.70;;
3280;SDS011;1652;51.318;6.202;2023-04-08T00:40:56;68.47;;;24.47;;
3280;SDS011;1652;51.318;6.202;2023-04-08T00:43:23;44.90;;;23.50;;
3280;SDS011;1652;51.318;6.202;2023-04-08T00:45:50;40.17;;;23.40;;
3280;SDS011;1652;51.318;6.202;2023-04-08T00:48:17;56.27;;;23.77;;
3280;SDS011;1652;51.318;6.202;2023-04-08T00:50:44;64.57;;;24.97;;
3280;SDS011;1652;51.318;6.202;2023-04-08T00:53:14;61.57;;;23.27;;
3280;SDS011;1652;51.318;6.202;2023-04-08T00:55:43;47.20;;;23.50;;
3280;SDS011;1652;51.318;6.202;2023-04-08T00:58:11;63.03;;;24.37;;
3280;SDS011;1652;51.318;6.202;2023-04-08T01:00:41;55.23;;;25.10;;
3280;SDS011;1652;51.318;6.202;2023-04-08T01:03:17;47.20;;;23.80;;
3280;SDS011;1652;51.318;6.202;2023-04-08T01:05:59;45.40;;;23.67;;
3280;SDS011;1652;51.318;6.202;2023-04-08T01:08:37;64.40;;;25.53;;
3280;SDS011;1652;51.318;6.202;2023-04-08T01:11:07;51.13;;;24.90;;
3280;SDS011;1652;51.318;6.202;2023-04-08T01:13:38;62.47;;;25.37;;
3280;SDS011;1652;51.318;6.202;2023-04-08T01:16:08;64.00;;;25.50;;
3280;SDS011;1652;51.318;6.202;2023-04-08T01:18:38;60.30;;;25.13;;
3280;SDS011;1652;51.318;6.202;2023-04-08T01:21:07;55.70;;;24.10;;
3280;SDS011;1652;51.318;6.202;2023-04-08T01:23:40;58.53;;;25.33;;
3280;SDS011;1652;51.318;6.202;2023-04-08T01:26:20;58.57;;;24.03;;
3280;SDS011;1652;51.318;6.202;2023-04-08T01:28:49;59.93;;;26.17;;
3280;SDS011;1652;51.318;6.202;2023-04-08T01:31:19;61.33;;;24.33;;
3280;SDS011;1652;51.318;6.202;2023-04-08T01:33:49;56.47;;;26.00;;
3280;SDS011;1652;51.318;6.202;2023-04-08T01:36:17;47.73;;;26.00;;
3280;SDS011;1652;51.318;6.202;2023-04-08T01:38:46;47.53;;;24.53;;
3280;SDS011;1652;51.318;6.202;2023-04-08T01:41:14;57.30;;;26.63;;
3280;SDS011;1652;51.318;6.202;2023-04-08T01:43:43;56.63;;;25.77;;
3280;SDS011;1652;51.318;6.202;2023-04-08T01:46:11;54.97;;;26.53;;
3280;SDS011;1652;51.318;6.202;2023-04-08T01:48:40;67.60;;;26.70;;
3280;SDS011;1652;51.318;6.202;2023-04-08T01:51:08;54.23;;;25.60;;
3280;SDS011;1652;51.318;6.202;2023-04-08T01:53:36;73.23;;;26.67;;
3280;SDS011;1652;51.318;6.202;2023-04-08T01:56:05;60.73;;;26.33;;
3280;SDS011;1652;51.318;6.202;2023-04-08T01:58:39;66.23;;;28.10;;
3280;SDS011;1652;51.318;6.202;2023-04-08T02:01:16;64.57;;;27.10;;
3280;SDS011;1652;51.318;6.202;2023-04-08T02:03:45;56.00;;;27.60;;
3280;SDS011;1652;51.318;6.202;2023-04-08T02:06:14;79.33;;;27.70;;
3280;SDS011;1652;51.318;6.202;2023-04-08T02:08:41;64.47;;;27.63;;
3280;SDS011;1652;51.318;6.202;2023-04-08T02:11:08;75.17;;;27.90;;
3280;SDS011;1652;51.318;6.202;2023-04-08T02:13:35;59.87;;;27.93;;
3280;SDS011;1652;51.318;6.202;2023-04-08T02:16:08;56.10;;;28.60;;
3280;SDS011;1652;51.318;6.202;2023-04-08T02:18:39;58.73;;;25.97;;
3280;SDS011;1652;51.318;6.202;2023-04-08T02:21:11;69.70;;;28.17;;
3280;SDS011;1652;51.318;6.202;2023-04-08T02:23:41;66.13;;;26.37;;
3280;SDS011;1652;51.318;6.202;2023-04-08T02:26:14;80.50;;;27.80;;
3280;SDS011;1652;51.318;6.202;2023-04-08T02:28:42;68.67;;;28.50;;
3280;SDS011;1652;51.318;6.202;2023-04-08T02:31:10;58.03;;;26.87;;
3280;SDS011;1652;51.318;6.202;2023-04-08T02:33:39;65.40;;;28.43;;
3280;SDS011;1652;51.318;6.202;2023-04-08T02:36:07;68.77;;;29.13;;
3280;SDS011;1652;51.318;6.202;2023-04-08T02:38:36;82.53;;;29.17;;
3280;SDS011;1652;51.318;6.202;2023-04-08T02:41:03;68.47;;;29.30;;
3280;SDS011;1652;51.318;6.202;2023-04-08T02:43:30;70.53;;;26.63;;
3280;SDS011;1652;51.318;6.202;2023-04-08T02:45:58;75.43;;;28.70;;
3280;SDS011;1652;51.318;6.202;2023-04-08T02:48:29;55.13;;;27.30;;
3280;SDS011;1652;51.318;6.202;2023-04-08T02:50:56;74.90;;;30.13;;
3280;SDS011;1652;51.318;6.202;2023-04-08T02:53:23;58.73;;;27.57;;
3280;SDS011;1652;51.318;6.202;2023-04-08T02:55:50;59.73;;;26.30;;
3280;SDS011;1652;51.318;6.202;2023-04-08T02:58:17;79.47;;;29.90;;
3280;SDS011;1652;51.318;6.202;2023-04-08T03:00:44;73.97;;;28.63;;
3280;SDS011;1652;51.318;6.202;2023-04-08T03:03:11;68.03;;;27.00;;
3280;SDS011;1652;51.318;6.202;2023-04-08T03:05:38;64.73;;;28.70;;
3280;SDS011;1652;51.318;6.202;2023-04-08T03:08:05;66.63;;;28.57;;
3280;SDS011;1652;51.318;6.202;2023-04-08T03:10:32;76.77;;;29.90;;
3280;SDS011;1652;51.318;6.202;2023-04-08T03:12:59;65.80;;;28.57;;
3280;SDS011;1652;51.318;6.202;2023-04-08T03:15:26;89.53;;;30.10;;
3280;SDS011;1652;51.318;6.202;2023-04-08T03:17:53;69.50;;;29.23;;
3280;SDS011;1652;51.318;6.202;2023-04-08T03:20:20;78.73;;;30.30;;
3280;SDS011;1652;51.318;6.202;2023-04-08T03:22:47;90.30;;;32.07;;
3280;SDS011;1652;51.318;6.202;2023-04-08T03:25:13;85.27;;;31.30;;
3280;SDS011;1652;51.318;6.202;2023-04-08T03:27:40;78.80;;;31.30;;
3280;SDS011;1652;51.318;6.202;2023-04-08T03:30:07;77.43;;;30.07;;
3280;SDS011;1652;51.318;6.202;2023-04-08T03:32:35;80.03;;;32.43;;
3280;SDS011;1652;51.318;6.202;2023-04-08T03:35:02;61.57;;;28.23;;
3280;SDS011;1652;51.318;6.202;2023-04-08T03:37:29;74.03;;;31.03;;
3280;SDS011;1652;51.318;6.202;2023-04-08T03:39:57;76.53;;;31.60;;
3280;SDS011;1652;51.318;6.202;2023-04-08T03:42:24;80.90;;;32.43;;
3280;SDS011;1652;51.318;6.202;2023-04-08T03:44:51;93.73;;;33.23;;
3280;SDS011;1652;51.318;6.202;2023-04-08T03:47:18;82.07;;;31.93;;
3280;SDS011;1652;51.318;6.202;2023-04-08T03:49:44;84.80;;;30.73;;
3280;SDS011;1652;51.318;6.202;2023-04-08T03:52:11;91.23;;;31.83;;
3280;SDS011;1652;51.318;6.202;2023-04-08T03:54:38;84.33;;;31.87;;
3280;SDS011;1652;51.318;6.202;2023-04-08T03:57:05;93.80;;;33.43;;
3280;SDS011;1652;51.318;6.202;2023-04-08T03:59:32;79.93;;;31.63;;
3280;SDS011;1652;51.318;6.202;2023-04-08T04:01:59;76.43;;;30.97;;
3280;SDS011;1652;51.318;6.202;2023-04-08T04:04:26;85.07;;;31.30;;
3280;SDS011;1652;51.318;6.202;2023-04-08T04:06:53;69.97;;;30.30;;
3280;SDS011;1652;51.318;6.202;2023-04-08T04:09:20;78.37;;;30.40;;
3280;SDS011;1652;51.318;6.202;2023-04-08T04:11:46;67.80;;;31.47;;
3280;SDS011;1652;51.318;6.202;2023-04-08T04:14:13;84.17;;;31.80;;
3280;SDS011;1652;51.318;6.202;2023-04-08T04:16:40;85.40;;;32.07;;
3280;SDS011;1652;51.318;6.202;2023-04-08T04:19:07;88.77;;;32.33;;
3280;SDS011;1652;51.318;6.202;2023-04-08T04:21:34;78.77;;;30.63;;
3280;SDS011;1652;51.318;6.202;2023-04-08T04:24:01;80.07;;;30.30;;
3280;SDS011;1652;51.318;6.202;2023-04-08T04:26:28;74.30;;;30.87;;
3280;SDS011;1652;51.318;6.202;2023-04-08T04:28:55;74.53;;;30.43;;
3280;SDS011;1652;51.318;6.202;2023-04-08T04:31:23;72.87;;;32.07;;
3280;SDS011;1652;51.318;6.202;2023-04-08T04:33:53;83.07;;;30.57;;
3280;SDS011;1652;51.318;6.202;2023-04-08T04:36:20;84.80;;;32.00;;
3280;SDS011;1652;51.318;6.202;2023-04-08T04:38:48;90.97;;;32.07;;
3280;SDS011;1652;51.318;6.202;2023-04-08T04:41:16;82.87;;;30.63;;
3280;SDS011;1652;51.318;6.202;2023-04-08T04:43:43;86.47;;;31.80;;
3280;SDS011;1652;51.318;6.202;2023-04-08T04:46:10;86.20;;;32.27;;
3280;SDS011;1652;51.318;6.202;2023-04-08T04:48:37;77.00;;;33.67;;
3280;SDS011;1652;51.318;6.202;2023-04-08T04:51:04;90.40;;;34.97;;
3280;SDS011;1652;51.318;6.202;2023-04-08T04:53:32;91.47;;;33.60;;
3280;SDS011;1652;51.318;6.202;2023-04-08T04:55:59;88.83;;;31.80;;
3280;SDS011;1652;51.318;6.202;2023-04-08T04:58:27;86.57;;;33.20;;
3280;SDS011;1652;51.318;6.202;2023-04-08T05:00:55;84.47;;;33.20;;
3280;SDS011;1652;51.318;6.202;2023-04-08T05:03:22;82.33;;;31.00;;
3280;SDS011;1652;51.318;6.202;2023-04-08T05:05:49;84.60;;;31.50;;
3280;SDS011;1652;51.318;6.202;2023-04-08T05:08:17;82.73;;;33.17;;
3280;SDS011;1652;51.318;6.202;2023-04-08T05:10:44;73.67;;;30.60;;
3280;SDS011;1652;51.318;6.202;2023-04-08T05:13:11;85.37;;;33.67;;
3280;SDS011;1652;51.318;6.202;2023-04-08T05:15:38;78.57;;;33.00;;
3280;SDS011;1652;51.318;6.202;2023-04-08T05:18:05;80.57;;;34.30;;
3280;SDS011;1652;51.318;6.202;2023-04-08T05:20:32;86.57;;;32.10;;
3280;SDS011;1652;51.318;6.202;2023-04-08T05:22:59;80.00;;;33.47;;
3280;SDS011;1652;51.318;6.202;2023-04-08T05:25:26;81.40;;;34.23;;
3280;SDS011;1652;51.318;6.202;2023-04-08T05:27:53;83.93;;;33.57;;
3280;SDS011;1652;51.318;6.202;2023-04-08T05:30:20;76.33;;;32.90;;
3280;SDS011;1652;51.318;6.202;2023-04-08T05:32:47;79.17;;;33.37;;
3280;SDS011;1652;51.318;6.202;2023-04-08T05:35:14;78.83;;;31.70;;
3280;SDS011;1652;51.318;6.202;2023-04-08T05:37:41;67.07;;;32.30;;
3280;SDS011;1652;51.318;6.202;2023-04-08T05:40:08;71.43;;;30.40;;
3280;SDS011;1652;51.318;6.202;2023-04-08T05:42:35;69.53;;;31.77;;
3280;SDS011;1652;51.318;6.202;2023-04-08T05:45:02;70.77;;;34.73;;
3280;SDS011;1652;51.318;6.202;2023-04-08T05:47:29;73.47;;;31.63;;
3280;SDS011;1652;51.318;6.202;2023-04-08T05:49:56;64.73;;;31.30;;
3280;SDS011;1652;51.318;6.202;2023-04-08T05:52:23;68.10;;;31.63;;
3280;SDS011;1652;51.318;6.202;2023-04-08T05:54:50;73.87;;;33.80;;
3280;SDS011;1652;51.318;6.202;2023-04-08T05:57:17;83.20;;;35.73;;
3280;SDS011;1652;51.318;6.202;2023-04-08T05:59:43;73.07;;;33.77;;
3280;SDS011;1652;51.318;6.202;2023-04-08T06:02:11;67.73;;;32.10;;
3280;SDS011;1652;51.318;6.202;2023-04-08T06:04:38;66.10;;;31.97;;
3280;SDS011;1652;51.318;6.202;2023-04-08T06:07:05;78.77;;;34.00;;
3280;SDS011;1652;51.318;6.202;2023-04-08T06:09:34;72.43;;;33.33;;
3280;SDS011;1652;51.318;6.202;2023-04-08T06:12:02;63.20;;;31.23;;
3280;SDS011;1652;51.318;6.202;2023-04-08T06:14:29;60.77;;;31.33;;
3280;SDS011;1652;51.318;6.202;2023-04-08T06:16:56;75.87;;;33.37;;
3280;SDS011;1652;51.318;6.202;2023-04-08T06:19:23;87.70;;;36.90;;
3280;SDS011;1652;51.318;6.202;2023-04-08T06:21:50;82.07;;;34.73;;
3280;SDS011;1652;51.318;6.202;2023-04-08T06:24:17;84.20;;;36.83;;
3280;SDS011;1652;51.318;6.202;2023-04-08T06:26:43;88.00;;;35.77;;
3280;SDS011;1652;51.318;6.202;2023-04-08T06:29:10;81.60;;;36.40;;
3280;SDS011;1652;51.318;6.202;2023-04-08T06:31:37;78.33;;;33.73;;
3280;SDS011;1652;51.318;6.202;2023-04-08T06:34:04;75.37;;;32.70;;
3280;SDS011;1652;51.318;6.202;2023-04-08T06:36:31;67.53;;;34.50;;
3280;SDS011;1652;51.318;6.202;2023-04-08T06:38:58;61.20;;;32.90;;
3280;SDS011;1652;51.318;6.202;2023-04-08T06:41:25;65.27;;;32.87;;
3280;SDS011;1652;51.318;6.202;2023-04-08T06:43:52;64.47;;;32.40;;
3280;SDS011;1652;51.318;6.202;2023-04-08T06:46:19;60.10;;;33.43;;
3280;SDS011;1652;51.318;6.202;2023-04-08T06:48:46;62.10;;;32.10;;
3280;SDS011;1652;51.318;6.202;2023-04-08T06:51:13;63.17;;;32.67;;
3280;SDS011;1652;51.318;6.202;2023-04-08T06:53:41;55.20;;;29.70;;
3280;SDS011;1652;51.318;6.202;2023-04-08T06:56:07;58.53;;;31.80;;
3280;SDS011;1652;51.318;6.202;2023-04-08T06:58:34;63.40;;;31.17;;
3280;SDS011;1652;51.318;6.202;2023-04-08T07:01:01;60.43;;;34.57;;
3280;SDS011;1652;51.318;6.202;2023-04-08T07:03:28;54.57;;;30.80;;
3280;SDS011;1652;51.318;6.202;2023-04-08T07:05:56;55.13;;;29.77;;
3280;SDS011;1652;51.318;6.202;2023-04-08T07:08:23;47.40;;;29.07;;
3280;SDS011;1652;51.318;6.202;2023-04-08T07:10:50;49.33;;;28.67;;
3280;SDS011;1652;51.318;6.202;2023-04-08T07:13:18;51.00;;;30.37;;
3280;SDS011;1652;51.318;6.202;2023-04-08T07:15:44;53.10;;;30.90;;
3280;SDS011;1652;51.318;6.202;2023-04-08T07:18:12;61.10;;;34.30;;
3280;SDS011;1652;51.318;6.202;2023-04-08T07:20:39;53.00;;;32.00;;
3280;SDS011;1652;51.318;6.202;2023-04-08T07:23:07;53.00;;;32.27;;
3280;SDS011;1652;51.318;6.202;2023-04-08T07:25:34;55.90;;;32.37;;
3280;SDS011;1652;51.318;6.202;2023-04-08T07:28:01;56.50;;;34.90;;
3280;SDS011;1652;51.318;6.202;2023-04-08T07:30:28;58.57;;;32.20;;
3280;SDS011;1652;51.318;6.202;2023-04-08T07:32:55;53.60;;;32.20;;
3280;SDS011;1652;51.318;6.202;2023-04-08T07:35:25;60.43;;;33.80;;
3280;SDS011;1652;51.318;6.202;2023-04-08T07:37:53;49.80;;;30.97;;
3280;SDS011;1652;51.318;6.202;2023-04-08T07:40:20;54.87;;;30.70;;
3280;SDS011;1652;51.318;6.202;2023-04-08T07:42:47;58.67;;;32.47;;
3280;SDS011;1652;51.318;6.202;2023-04-08T07:45:14;58.60;;;32.00;;
3280;SDS011;1652;51.318;6.202;2023-04-08T07:47:41;58.87;;;32.00;;
3280;SDS011;1652;51.318;6.202;2023-04-08T07:50:10;60.40;;;33.47;;
3280;SDS011;1652;51.318;6.202;2023-04-08T07:52:37;56.80;;;32.40;;
3280;SDS011;1652;51.318;6.202;2023-04-08T07:55:04;56.13;;;31.10;;
3280;SDS011;1652;51.318;6.202;2023-04-08T07:57:31;57.33;;;31.17;;
3280;SDS011;1652;51.318;6.202;2023-04-08T07:59:58;65.40;;;32.47;;
3280;SDS011;1652;51.318;6.202;2023-04-08T08:02:25;50.70;;;30.73;;
3280;SDS011;1652;51.318;6.202;2023-04-08T08:04:52;65.10;;;32.87;;
3280;SDS011;1652;51.318;6.202;2023-04-08T08:07:19;55.00;;;31.57;;
3280;SDS011;1652;51.318;6.202;2023-04-08T08:09:46;49.00;;;28.57;;
3280;SDS011;1652;51.318;6.202;2023-04-08T08:12:13;58.97;;;33.93;;
3280;SDS011;1652;51.318;6.202;2023-04-08T08:14:40;54.83;;;32.43;;
3280;SDS011;1652;51.318;6.202;2023-04-08T08:17:06;47.40;;;29.60;;
3280;SDS011;1652;51.318;6.202;2023-04-08T08:19:33;49.93;;;30.20;;
3280;SDS011;1652;51.318;6.202;2023-04-08T08:22:00;49.70;;;28.90;;
3280;SDS011;1652;51.318;6.202;2023-04-08T08:24:27;51.23;;;29.10;;
3280;SDS011;1652;51.318;6.202;2023-04-08T08:26:54;42.73;;;25.77;;
3280;SDS011;1652;51.318;6.202;2023-04-08T08:29:21;44.23;;;25.60;;
3280;SDS011;1652;51.318;6.202;2023-04-08T08:31:48;39.07;;;25.97;;
3280;SDS011;1652;51.318;6.202;2023-04-08T08:34:15;39.87;;;24.83;;
3280;SDS011;1652;51.318;6.202;2023-04-08T08:36:42;36.13;;;23.20;;
3280;SDS011;1652;51.318;6.202;2023-04-08T08:39:09;37.67;;;24.70;;
3280;SDS011;1652;51.318;6.202;2023-04-08T08:41:36;40.67;;;24.20;;
3280;SDS011;1652;51.318;6.202;2023-04-08T08:44:06;34.97;;;22.87;;
3280;SDS011;1652;51.318;6.202;2023-04-08T08:46:33;40.83;;;24.93;;
3280;SDS011;1652;51.318;6.202;2023-04-08T08:49:01;34.17;;;22.57;;
3280;SDS011;1652;51.318;6.202;2023-04-08T08:54:00;32.20;;;21.57;;
3280;SDS011;1652;51.318;6.202;2023-04-08T08:56:28;32.53;;;21.43;;
3280;SDS011;1652;51.318;6.202;2023-04-08T08:58:55;30.90;;;20.33;;
3280;SDS011;1652;51.318;6.202;2023-04-08T09:01:28;32.27;;;20.40;;
3280;SDS011;1652;51.318;6.202;2023-04-08T09:04:31;32.50;;;22.30;;
3280;SDS011;1652;51.318;6.202;2023-04-08T09:07:08;31.63;;;20.70;;
3280;SDS011;1652;51.318;6.202;2023-04-08T09:09:49;34.50;;;22.00;;
3280;SDS011;1652;51.318;6.202;2023-04-08T09:12:16;33.27;;;21.77;;
3280;SDS011;1652;51.318;6.202;2023-04-08T09:14:43;38.10;;;21.50;;
3280;SDS011;1652;51.318;6.202;2023-04-08T09:17:10;33.03;;;21.33;;
3280;SDS011;1652;51.318;6.202;2023-04-08T09:19:37;33.03;;;20.73;;
3280;SDS011;1652;51.318;6.202;2023-04-08T09:22:08;32.53;;;21.60;;
3280;SDS011;1652;51.318;6.202;2023-04-08T09:24:36;34.53;;;21.70;;
3280;SDS011;1652;51.318;6.202;2023-04-08T09:27:04;35.30;;;21.97;;
3280;SDS011;1652;51.318;6.202;2023-04-08T09:29:31;36.70;;;21.93;;
3280;SDS011;1652;51.318;6.202;2023-04-08T09:32:04;30.43;;;20.53;;
3280;SDS011;1652;51.318;6.202;2023-04-08T09:34:31;30.13;;;21.60;;
3280;SDS011;1652;51.318;6.202;2023-04-08T09:36:59;29.87;;;20.20;;
3280;SDS011;1652;51.318;6.202;2023-04-08T09:39:26;30.63;;;20.43;;
3280;SDS011;1652;51.318;6.202;2023-04-08T09:41:53;27.23;;;19.20;;
3280;SDS011;1652;51.318;6.202;2023-04-08T09:44:27;30.40;;;20.17;;
3280;SDS011;1652;51.318;6.202;2023-04-08T09:46:55;38.50;;;23.83;;
3280;SDS011;1652;51.318;6.202;2023-04-08T09:49:37;34.10;;;21.33;;
3280;SDS011;1652;51.318;6.202;2023-04-08T09:52:09;30.40;;;20.57;;
3280;SDS011;1652;51.318;6.202;2023-04-08T09:54:54;27.40;;;19.50;;
3280;SDS011;1652;51.318;6.202;2023-04-08T10:00:27;29.30;;;20.20;;
3280;SDS011;1652;51.318;6.202;2023-04-08T10:05:34;26.53;;;19.10;;
3280;SDS011;1652;51.318;6.202;2023-04-08T10:08:04;27.00;;;18.90;;
3280;SDS011;1652;51.318;6.202;2023-04-08T10:10:33;29.57;;;18.13;;
3280;SDS011;1652;51.318;6.202;2023-04-08T10:13:02;26.67;;;20.00;;
3280;SDS011;1652;51.318;6.202;2023-04-08T10:15:30;25.83;;;18.23;;
3280;SDS011;1652;51.318;6.202;2023-04-08T10:23:03;24.67;;;18.73;;
3280;SDS011;1652;51.318;6.202;2023-04-08T10:25:35;22.63;;;17.60;;
3280;SDS011;1652;51.318;6.202;2023-04-08T10:33:08;25.20;;;19.17;;
3280;SDS011;1652;51.318;6.202;2023-04-08T10:35:40;24.70;;;19.00;;
3280;SDS011;1652;51.318;6.202;2023-04-08T10:38:12;27.60;;;20.90;;
3280;SDS011;1652;51.318;6.202;2023-04-08T10:40:40;25.20;;;19.47;;
3280;SDS011;1652;51.318;6.202;2023-04-08T10:43:09;29.67;;;19.20;;
3280;SDS011;1652;51.318;6.202;2023-04-08T10:45:37;26.43;;;19.27;;
3280;SDS011;1652;51.318;6.202;2023-04-08T10:50:59;25.97;;;19.50;;
3280;SDS011;1652;51.318;6.202;2023-04-08T10:53:30;25.30;;;19.20;;
3280;SDS011;1652;51.318;6.202;2023-04-08T10:56:34;26.40;;;20.40;;
3280;SDS011;1652;51.318;6.202;2023-04-08T10:58:55;22.60;;;18.00;;
3280;SDS011;1652;51.318;6.202;2023-04-08T11:01:22;24.63;;;18.30;;
3280;SDS011;1652;51.318;6.202;2023-04-08T11:03:49;25.07;;;18.40;;
3280;SDS011;1652;51.318;6.202;2023-04-08T11:06:17;25.30;;;18.63;;
3280;SDS011;1652;51.318;6.202;2023-04-08T11:08:44;25.50;;;19.27;;
3280;SDS011;1652;51.318;6.202;2023-04-08T11:11:12;41.60;;;28.17;;
3280;SDS011;1652;51.318;6.202;2023-04-08T11:13:40;26.23;;;19.87;;
3280;SDS011;1652;51.318;6.202;2023-04-08T11:16:18;24.27;;;19.20;;
3280;SDS011;1652;51.318;6.202;2023-04-08T11:18:47;25.20;;;19.57;;
3280;SDS011;1652;51.318;6.202;2023-04-08T11:21:14;27.10;;;19.90;;
3280;SDS011;1652;51.318;6.202;2023-04-08T11:23:42;22.67;;;18.30;;
3280;SDS011;1652;51.318;6.202;2023-04-08T11:26:09;22.57;;;18.40;;
3280;SDS011;1652;51.318;6.202;2023-04-08T11:28:36;22.93;;;17.63;;
3280;SDS011;1652;51.318;6.202;2023-04-08T11:31:04;21.83;;;18.60;;
3280;SDS011;1652;51.318;6.202;2023-04-08T11:33:31;18.63;;;16.60;;
3280;SDS011;1652;51.318;6.202;2023-04-08T11:36:00;26.20;;;19.07;;
3280;SDS011;1652;51.318;6.202;2023-04-08T11:38:31;22.83;;;18.00;;
3280;SDS011;1652;51.318;6.202;2023-04-08T11:40:58;21.07;;;17.80;;
3280;SDS011;1652;51.318;6.202;2023-04-08T11:43:25;22.50;;;18.30;;
3280;SDS011;1652;51.318;6.202;2023-04-08T11:45:52;23.20;;;17.87;;
3280;SDS011;1652;51.318;6.202;2023-04-08T11:48:19;24.33;;;18.20;;
3280;SDS011;1652;51.318;6.202;2023-04-08T11:50:46;18.47;;;16.27;;
3280;SDS011;1652;51.318;6.202;2023-04-08T11:53:17;20.30;;;17.53;;
3280;SDS011;1652;51.318;6.202;2023-04-08T11:55:50;20.93;;;16.03;;
3280;SDS011;1652;51.318;6.202;2023-04-08T11:58:17;19.93;;;17.27;;
3280;SDS011;1652;51.318;6.202;2023-04-08T12:00:44;18.90;;;15.70;;
3280;SDS011;1652;51.318;6.202;2023-04-08T12:03:11;17.37;;;15.57;;
3280;SDS011;1652;51.318;6.202;2023-04-08T12:05:39;18.60;;;15.97;;
3280;SDS011;1652;51.318;6.202;2023-04-08T12:08:06;19.23;;;16.30;;
3280;SDS011;1652;51.318;6.202;2023-04-08T12:10:33;18.73;;;14.70;;
3280;SDS011;1652;51.318;6.202;2023-04-08T12:13:00;20.13;;;15.60;;
3280;SDS011;1652;51.318;6.202;2023-04-08T12:15:27;18.47;;;14.90;;
3280;SDS011;1652;51.318;6.202;2023-04-08T12:17:54;18.00;;;15.77;;
3280;SDS011;1652;51.318;6.202;2023-04-08T12:20:21;15.23;;;13.57;;
3280;SDS011;1652;51.318;6.202;2023-04-08T12:22:48;13.50;;;11.97;;
3280;SDS011;1652;51.318;6.202;2023-04-08T12:25:15;14.13;;;11.80;;
3280;SDS011;1652;51.318;6.202;2023-04-08T12:27:41;16.67;;;12.30;;
3280;SDS011;1652;51.318;6.202;2023-04-08T12:30:08;14.83;;;11.70;;
3280;SDS011;1652;51.318;6.202;2023-04-08T12:32:36;17.47;;;14.07;;
3280;SDS011;1652;51.318;6.202;2023-04-08T12:35:03;16.10;;;14.20;;
3280;SDS011;1652;51.318;6.202;2023-04-08T12:37:30;15.50;;;12.90;;
3280;SDS011;1652;51.318;6.202;2023-04-08T12:39:58;14.70;;;12.80;;
3280;SDS011;1652;51.318;6.202;2023-04-08T12:42:25;15.00;;;13.37;;
3280;SDS011;1652;51.318;6.202;2023-04-08T12:44:53;17.27;;;12.00;;
3280;SDS011;1652;51.318;6.202;2023-04-08T12:47:20;20.10;;;13.93;;
3280;SDS011;1652;51.318;6.202;2023-04-08T12:49:50;17.33;;;13.43;;
3280;SDS011;1652;51.318;6.202;2023-04-08T12:52:16;13.70;;;12.40;;
3280;SDS011;1652;51.318;6.202;2023-04-08T12:54:44;16.43;;;13.53;;
3280;SDS011;1652;51.318;6.202;2023-04-08T12:57:10;15.03;;;13.50;;
3280;SDS011;1652;51.318;6.202;2023-04-08T12:59:37;16.33;;;13.00;;
3280;SDS011;1652;51.318;6.202;2023-04-08T13:02:05;13.67;;;12.23;;
3280;SDS011;1652;51.318;6.202;2023-04-08T13:04:33;13.00;;;11.70;;
3280;SDS011;1652;51.318;6.202;2023-04-08T13:07:00;13.23;;;11.93;;
3280;SDS011;1652;51.318;6.202;2023-04-08T13:09:29;12.77;;;11.57;;
3280;SDS011;1652;51.318;6.202;2023-04-08T13:11:56;10.67;;;9.77;;
3280;SDS011;1652;51.318;6.202;2023-04-08T13:14:23;11.20;;;10.13;;
3280;SDS011;1652;51.318;6.202;2023-04-08T13:16:50;10.90;;;9.90;;
3280;SDS011;1652;51.318;6.202;2023-04-08T13:19:17;10.63;;;9.57;;
3280;SDS011;1652;51.318;6.202;2023-04-08T13:21:44;12.53;;;10.30;;
3280;SDS011;1652;51.318;6.202;2023-04-08T13:24:11;12.20;;;11.03;;
3280;SDS011;1652;51.318;6.202;2023-04-08T13:26:38;10.43;;;9.33;;
3280;SDS011;1652;51.318;6.202;2023-04-08T13:29:05;10.93;;;10.00;;
3280;SDS011;1652;51.318;6.202;2023-04-08T13:31:32;9.63;;;8.63;;
3280;SDS011;1652;51.318;6.202;2023-04-08T13:33:59;9.97;;;9.07;;
3280;SDS011;1652;51.318;6.202;2023-04-08T13:36:26;9.13;;;8.43;;
3280;SDS011;1652;51.318;6.202;2023-04-08T13:38:54;17.17;;;12.60;;
3280;SDS011;1652;51.318;6.202;2023-04-08T13:41:21;8.70;;;7.83;;
3280;SDS011;1652;51.318;6.202;2023-04-08T13:43:48;10.27;;;9.20;;
3280;SDS011;1652;51.318;6.202;2023-04-08T13:46:15;9.97;;;8.40;;
3280;SDS011;1652;51.318;6.202;2023-04-08T13:48:43;8.83;;;8.10;;
3280;SDS011;1652;51.318;6.202;2023-04-08T13:51:11;9.53;;;8.63;;
3280;SDS011;1652;51.318;6.202;2023-04-08T13:53:38;9.27;;;8.53;;
3280;SDS011;1652;51.318;6.202;2023-04-08T13:56:04;9.07;;;8.37;;
3280;SDS011;1652;51.318;6.202;2023-04-08T13:58:32;9.40;;;8.60;;
3280;SDS011;1652;51.318;6.202;2023-04-08T14:00:59;9.30;;;8.50;;
3280;SDS011;1652;51.318;6.202;2023-04-08T14:03:26;12.70;;;8.80;;
3280;SDS011;1652;51.318;6.202;2023-04-08T14:05:53;8.63;;;7.83;;
3280;SDS011;1652;51.318;6.202;2023-04-08T14:08:20;8.73;;;8.13;;
3280;SDS011;1652;51.318;6.202;2023-04-08T14:10:51;12.27;;;8.67;;
3280;SDS011;1652;51.318;6.202;2023-04-08T14:13:18;8.97;;;8.10;;
3280;SDS011;1652;51.318;6.202;2023-04-08T14:15:46;8.50;;;7.67;;
3280;SDS011;1652;51.318;6.202;2023-04-08T14:18:14;8.80;;;8.00;;
3280;SDS011;1652;51.318;6.202;2023-04-08T14:20:44;9.07;;;8.20;;
3280;SDS011;1652;51.318;6.202;2023-04-08T14:23:11;8.53;;;7.93;;
3280;SDS011;1652;51.318;6.202;2023-04-08T14:25:38;9.03;;;8.13;;
3280;SDS011;1652;51.318;6.202;2023-04-08T14:28:06;9.00;;;8.40;;
3280;SDS011;1652;51.318;6.202;2023-04-08T14:30:33;9.20;;;8.50;;
3280;SDS011;1652;51.318;6.202;2023-04-08T14:33:01;11.70;;;8.57;;
3280;SDS011;1652;51.318;6.202;2023-04-08T14:35:30;8.90;;;8.30;;
3280;SDS011;1652;51.318;6.202;2023-04-08T14:37:58;8.27;;;7.70;;
3280;SDS011;1652;51.318;6.202;2023-04-08T14:40:25;9.37;;;8.50;;
3280;SDS011;1652;51.318;6.202;2023-04-08T14:42:52;9.90;;;9.03;;
3280;SDS011;1652;51.318;6.202;2023-04-08T14:45:19;10.80;;;8.33;;
3280;SDS011;1652;51.318;6.202;2023-04-08T14:47:46;9.10;;;8.27;;
3280;SDS011;1652;51.318;6.202;2023-04-08T14:50:13;9.67;;;8.70;;
3280;SDS011;1652;51.318;6.202;2023-04-08T14:52:39;10.10;;;9.10;;
3280;SDS011;1652;51.318;6.202;2023-04-08T14:55:06;8.80;;;8.00;;
3280;SDS011;1652;51.318;6.202;2023-04-08T14:57:33;15.23;;;9.80;;
3280;SDS011;1652;51.318;6.202;2023-04-08T15:00:01;9.40;;;8.50;;
3280;SDS011;1652;51.318;6.202;2023-04-08T15:02:28;9.50;;;8.70;;
3280;SDS011;1652;51.318;6.202;2023-04-08T15:04:55;10.73;;;8.33;;
3280;SDS011;1652;51.318;6.202;2023-04-08T15:07:22;9.20;;;8.40;;
3280;SDS011;1652;51.318;6.202;2023-04-08T15:09:49;13.07;;;8.63;;
3280;SDS011;1652;51.318;6.202;2023-04-08T15:12:16;8.90;;;8.03;;
3280;SDS011;1652;51.318;6.202;2023-04-08T15:14:43;9.97;;;7.77;;
3280;SDS011;1652;51.318;6.202;2023-04-08T15:17:10;9.10;;;8.20;;